sensor_id;sensor_type;location;lat;lon;timestamp;pressure;altitude;pressure_sealevel;temperature;humidity
11017;BME280;54687;50.800;6.772;2022-09-27T00:00:11;61080.34;;;-144.06;69.44
11017;BME280;54687;50.800;6.772;2022-09-27T00:02:38;61048.88;;;-144.06;69.92
11017;BME280;54687;50.800;6.772;2022-09-27T00:05:06;61042.59;;;-144.06;69.75
11017;BME280;54687;50.800;6.772;2022-09-27T00:07:33;61092.91;;;-144.06;69.69
11017;BME280;54687;50.800;6.772;2022-09-27T00:09:59;61046.78;;;-144.06;69.46
11017;BME280;54687;50.800;6.772;2022-09-27T00:12:27;61101.28;;;-144.06;70.19
11017;BME280;54687;50.800;6.772;2022-09-27T00:14:55;61063.56;;;-144.06;70.33
11017;BME280;54687;50.800;6.772;2022-09-27T00:17:22;61055.19;;;-144.06;70.28
11017;BME280;54687;50.800;6.772;2022-09-27T00:19:49;61063.56;;;-144.06;70.71
11017;BME280;54687;50.800;6.772;2022-09-27T00:22:16;61055.19;;;-144.06;70.84
11017;BME280;54687;50.800;6.772;2022-09-27T00:24:42;61086.63;;;-144.06;70.96
11017;BME280;54687;50.800;6.772;2022-09-27T00:27:09;60998.59;;;-144.06;71.10
11017;BME280;54687;50.800;6.772;2022-09-27T00:29:36;61042.59;;;-144.06;71.01
11017;BME280;54687;50.800;6.772;2022-09-27T00:32:04;61109.69;;;-144.06;71.47
11017;BME280;54687;50.800;6.772;2022-09-27T00:34:31;61071.94;;;-144.06;71.18
11017;BME280;54687;50.800;6.772;2022-09-27T00:36:57;61067.75;;;-144.06;70.72
11017;BME280;54687;50.800;6.772;2022-09-27T00:39:24;61059.38;;;-144.06;70.60
11017;BME280;54687;50.800;6.772;2022-09-27T00:41:51;61074.03;;;-144.06;70.95
11017;BME280;54687;50.800;6.772;2022-09-27T00:44:54;61065.66;;;-144.06;71.62
11017;BME280;54687;50.800;6.772;2022-09-27T00:47:27;61065.66;;;-144.06;71.31
11017;BME280;54687;50.800;6.772;2022-09-27T00:49:58;61069.84;;;-144.06;71.39
11017;BME280;54687;50.800;6.772;2022-09-27T00:52:31;61101.28;;;-144.06;70.97
11017;BME280;54687;50.800;6.772;2022-09-27T00:55:02;61118.06;;;-144.06;70.90
11017;BME280;54687;50.800;6.772;2022-09-27T00:57:30;61076.13;;;-144.06;70.97
11017;BME280;54687;50.800;6.772;2022-09-27T00:59:59;61063.56;;;-144.06;70.86
11017;BME280;54687;50.800;6.772;2022-09-27T01:02:31;61067.75;;;-144.06;71.17
11017;BME280;54687;50.800;6.772;2022-09-27T01:05:01;61097.09;;;-144.06;71.03
11017;BME280;54687;50.800;6.772;2022-09-27T01:07:29;61065.66;;;-144.06;71.56
11017;BME280;54687;50.800;6.772;2022-09-27T01:09:55;61113.88;;;-144.06;71.42
11017;BME280;54687;50.800;6.772;2022-09-27T01:12:30;61097.09;;;-144.06;71.10
11017;BME280;54687;50.800;6.772;2022-09-27T01:15:09;61034.22;;;-144.06;70.73
11017;BME280;54687;50.800;6.772;2022-09-27T01:17:48;61074.03;;;-144.06;70.26
11017;BME280;54687;50.800;6.772;2022-09-27T01:20:34;61038.41;;;-144.06;69.80
11017;BME280;54687;50.800;6.772;2022-09-27T01:23:20;61078.25;;;-144.06;70.06
11017;BME280;54687;50.800;6.772;2022-09-27T01:26:08;61040.50;;;-144.06;69.63
11017;BME280;54687;50.800;6.772;2022-09-27T01:28:46;61082.44;;;-144.06;69.33
11017;BME280;54687;50.800;6.772;2022-09-27T01:31:21;61053.09;;;-144.06;69.74
11017;BME280;54687;50.800;6.772;2022-09-27T01:33:56;61092.91;;;-144.06;69.45
11017;BME280;54687;50.800;6.772;2022-09-27T01:36:32;61082.44;;;-144.06;69.28
11017;BME280;54687;50.800;6.772;2022-09-27T01:39:09;61067.75;;;-144.06;69.11
11017;BME280;54687;50.800;6.772;2022-09-27T01:41:44;61048.88;;;-144.06;69.36
11017;BME280;54687;50.800;6.772;2022-09-27T01:44:19;61071.94;;;-144.06;69.17
11017;BME280;54687;50.800;6.772;2022-09-27T01:46:52;61084.53;;;-144.06;68.90
11017;BME280;54687;50.800;6.772;2022-09-27T01:49:26;61080.34;;;-144.06;69.04
11017;BME280;54687;50.800;6.772;2022-09-27T01:51:57;61105.50;;;-144.06;68.67
11017;BME280;54687;50.800;6.772;2022-09-27T01:54:30;61017.44;;;-144.06;68.75
11017;BME280;54687;50.800;6.772;2022-09-27T01:57:00;61067.75;;;-144.06;69.13
11017;BME280;54687;50.800;6.772;2022-09-27T01:59:31;61076.13;;;-144.06;69.01
11017;BME280;54687;50.800;6.772;2022-09-27T02:02:03;61036.31;;;-144.06;69.05
11017;BME280;54687;50.800;6.772;2022-09-27T02:04:34;61027.94;;;-144.06;68.82
11017;BME280;54687;50.800;6.772;2022-09-27T02:07:07;61057.28;;;-144.06;69.07
11017;BME280;54687;50.800;6.772;2022-09-27T02:09:38;61071.94;;;-144.06;69.12
11017;BME280;54687;50.800;6.772;2022-09-27T02:12:10;61071.94;;;-144.06;69.08
11017;BME280;54687;50.800;6.772;2022-09-27T02:14:42;61065.66;;;-144.06;68.96
11017;BME280;54687;50.800;6.772;2022-09-27T02:17:21;61048.88;;;-144.06;69.36
11017;BME280;54687;50.800;6.772;2022-09-27T02:19:55;61063.56;;;-144.06;69.70
11017;BME280;54687;50.800;6.772;2022-09-27T02:22:31;61063.56;;;-144.06;69.49
11017;BME280;54687;50.800;6.772;2022-09-27T02:25:01;61097.09;;;-144.06;69.75
11017;BME280;54687;50.800;6.772;2022-09-27T02:27:34;61082.44;;;-144.06;69.98
11017;BME280;54687;50.800;6.772;2022-09-27T02:30:05;61059.38;;;-144.06;69.99
11017;BME280;54687;50.800;6.772;2022-09-27T02:32:34;61076.13;;;-144.06;69.42
11017;BME280;54687;50.800;6.772;2022-09-27T02:35:06;61067.75;;;-144.06;69.38
11017;BME280;54687;50.800;6.772;2022-09-27T02:37:34;61084.53;;;-144.06;69.18
11017;BME280;54687;50.800;6.772;2022-09-27T02:40:01;61059.38;;;-144.06;68.82
11017;BME280;54687;50.800;6.772;2022-09-27T02:42:30;61051.00;;;-144.06;68.97
11017;BME280;54687;50.800;6.772;2022-09-27T02:44:59;61078.25;;;-144.06;68.56
11017;BME280;54687;50.800;6.772;2022-09-27T02:47:49;61113.88;;;-144.06;68.64
11017;BME280;54687;50.800;6.772;2022-09-27T02:50:32;61099.19;;;-144.06;68.66
11017;BME280;54687;50.800;6.772;2022-09-27T02:53:08;61099.19;;;-144.06;68.47
11017;BME280;54687;50.800;6.772;2022-09-27T02:55:45;61080.34;;;-144.06;68.33
11017;BME280;54687;50.800;6.772;2022-09-27T02:58:24;61105.50;;;-144.06;68.18
11017;BME280;54687;50.800;6.772;2022-09-27T03:01:01;61055.19;;;-144.06;68.17
11017;BME280;54687;50.800;6.772;2022-09-27T03:03:35;61076.13;;;-144.06;68.35
11017;BME280;54687;50.800;6.772;2022-09-27T03:06:08;61071.94;;;-144.06;67.96
11017;BME280;54687;50.800;6.772;2022-09-27T03:08:36;61063.56;;;-144.06;67.68
11017;BME280;54687;50.800;6.772;2022-09-27T03:11:03;61046.78;;;-144.06;67.39
11017;BME280;54687;50.800;6.772;2022-09-27T03:13:30;61021.63;;;-144.06;67.20
11017;BME280;54687;50.800;6.772;2022-09-27T03:15:59;61095.00;;;-144.06;66.56
11017;BME280;54687;50.800;6.772;2022-09-27T03:18:25;61076.13;;;-144.06;66.20
11017;BME280;54687;50.800;6.772;2022-09-27T03:20:53;61084.53;;;-144.06;66.61
11017;BME280;54687;50.800;6.772;2022-09-27T03:23:20;61097.09;;;-144.06;65.90
11017;BME280;54687;50.800;6.772;2022-09-27T03:25:47;61088.72;;;-144.06;66.36
11017;BME280;54687;50.800;6.772;2022-09-27T03:28:14;61067.75;;;-144.06;66.28
11017;BME280;54687;50.800;6.772;2022-09-27T03:30:41;61057.28;;;-144.06;66.54
11017;BME280;54687;50.800;6.772;2022-09-27T03:33:07;61084.53;;;-144.06;66.58
11017;BME280;54687;50.800;6.772;2022-09-27T03:35:34;61076.13;;;-144.06;66.98
11017;BME280;54687;50.800;6.772;2022-09-27T03:38:04;61055.19;;;-144.06;66.66
11017;BME280;54687;50.800;6.772;2022-09-27T03:40:31;61099.19;;;-144.06;66.86
11017;BME280;54687;50.800;6.772;2022-09-27T03:42:58;61082.44;;;-144.06;67.59
11017;BME280;54687;50.800;6.772;2022-09-27T03:45:25;61082.44;;;-144.06;67.69
11017;BME280;54687;50.800;6.772;2022-09-27T03:47:53;61092.91;;;-144.06;67.74
11017;BME280;54687;50.800;6.772;2022-09-27T03:50:20;61107.59;;;-144.06;67.93
11017;BME280;54687;50.800;6.772;2022-09-27T03:52:46;61071.94;;;-144.06;67.84
11017;BME280;54687;50.800;6.772;2022-09-27T03:55:15;61078.25;;;-144.06;67.83
11017;BME280;54687;50.800;6.772;2022-09-27T03:57:43;61065.66;;;-144.06;67.68
11017;BME280;54687;50.800;6.772;2022-09-27T04:00:12;61046.78;;;-144.06;67.73
11017;BME280;54687;50.800;6.772;2022-09-27T04:02:39;61067.75;;;-144.06;67.41
11017;BME280;54687;50.800;6.772;2022-09-27T04:05:06;61097.09;;;-144.06;67.30
11017;BME280;54687;50.800;6.772;2022-09-27T04:07:35;61067.75;;;-144.06;67.52
11017;BME280;54687;50.800;6.772;2022-09-27T04:10:03;61092.91;;;-144.06;67.59
11017;BME280;54687;50.800;6.772;2022-09-27T04:12:32;61074.03;;;-144.06;67.87
11017;BME280;54687;50.800;6.772;2022-09-27T04:14:58;61111.78;;;-144.06;67.52
11017;BME280;54687;50.800;6.772;2022-09-27T04:17:25;61078.25;;;-144.06;67.58
11017;BME280;54687;50.800;6.772;2022-09-27T04:19:52;61051.00;;;-144.06;67.21
11017;BME280;54687;50.800;6.772;2022-09-27T04:22:18;61084.53;;;-144.06;67.44
11017;BME280;54687;50.800;6.772;2022-09-27T04:24:46;61082.44;;;-144.06;67.60
11017;BME280;54687;50.800;6.772;2022-09-27T04:27:13;61057.28;;;-144.06;67.26
11017;BME280;54687;50.800;6.772;2022-09-27T04:29:42;61109.69;;;-144.06;67.99
11017;BME280;54687;50.800;6.772;2022-09-27T04:32:10;61113.88;;;-144.06;67.79
11017;BME280;54687;50.800;6.772;2022-09-27T04:34:37;61126.44;;;-144.06;68.12
11017;BME280;54687;50.800;6.772;2022-09-27T04:37:21;61092.91;;;-144.06;68.67
11017;BME280;54687;50.800;6.772;2022-09-27T04:39:48;61101.28;;;-144.06;68.84
11017;BME280;54687;50.800;6.772;2022-09-27T04:42:15;61105.50;;;-144.06;68.64
11017;BME280;54687;50.800;6.772;2022-09-27T04:44:43;61122.25;;;-144.06;69.04
11017;BME280;54687;50.800;6.772;2022-09-27T04:47:10;61092.91;;;-144.06;68.85
11017;BME280;54687;50.800;6.772;2022-09-27T04:49:37;61109.69;;;-144.06;68.89
11017;BME280;54687;50.800;6.772;2022-09-27T04:52:04;61086.63;;;-144.06;68.82
11017;BME280;54687;50.800;6.772;2022-09-27T04:54:31;61084.53;;;-144.06;68.98
11017;BME280;54687;50.800;6.772;2022-09-27T04:56:57;61086.63;;;-144.06;68.84
11017;BME280;54687;50.800;6.772;2022-09-27T04:59:24;61105.50;;;-144.06;68.81
11017;BME280;54687;50.800;6.772;2022-09-27T05:01:53;61071.94;;;-144.06;68.94
11017;BME280;54687;50.800;6.772;2022-09-27T05:04:20;61097.09;;;-144.06;68.95
11017;BME280;54687;50.800;6.772;2022-09-27T05:06:47;61122.25;;;-144.06;68.77
11017;BME280;54687;50.800;6.772;2022-09-27T05:09:14;61109.69;;;-144.06;68.83
11017;BME280;54687;50.800;6.772;2022-09-27T05:11:41;61097.09;;;-144.06;68.89
11017;BME280;54687;50.800;6.772;2022-09-27T05:14:08;61126.44;;;-144.06;69.00
11017;BME280;54687;50.800;6.772;2022-09-27T05:16:34;61113.88;;;-144.06;68.74
11017;BME280;54687;50.800;6.772;2022-09-27T05:19:03;61080.34;;;-144.06;68.67
11017;BME280;54687;50.800;6.772;2022-09-27T05:21:30;61101.28;;;-144.06;68.59
11017;BME280;54687;50.800;6.772;2022-09-27T05:24:15;61076.13;;;-144.06;68.27
11017;BME280;54687;50.800;6.772;2022-09-27T05:26:42;61086.63;;;-144.06;68.16
11017;BME280;54687;50.800;6.772;2022-09-27T05:29:09;61076.13;;;-144.06;68.06
11017;BME280;54687;50.800;6.772;2022-09-27T05:31:37;61097.09;;;-144.06;67.94
11017;BME280;54687;50.800;6.772;2022-09-27T05:34:05;61097.09;;;-144.06;68.34
11017;BME280;54687;50.800;6.772;2022-09-27T05:36:33;61101.28;;;-144.06;68.33
11017;BME280;54687;50.800;6.772;2022-09-27T05:39:00;61086.63;;;-144.06;68.08
11017;BME280;54687;50.800;6.772;2022-09-27T05:41:28;61076.13;;;-144.06;67.64
11017;BME280;54687;50.800;6.772;2022-09-27T05:43:57;61084.53;;;-144.06;67.32
11017;BME280;54687;50.800;6.772;2022-09-27T05:46:24;61136.94;;;-144.06;67.19
11017;BME280;54687;50.800;6.772;2022-09-27T05:48:50;61078.25;;;-144.06;67.06
11017;BME280;54687;50.800;6.772;2022-09-27T05:51:18;61076.13;;;-144.06;66.98
11017;BME280;54687;50.800;6.772;2022-09-27T05:53:45;61074.03;;;-144.06;67.17
11017;BME280;54687;50.800;6.772;2022-09-27T05:56:12;61126.44;;;-144.06;67.13
11017;BME280;54687;50.800;6.772;2022-09-27T05:58:39;61124.34;;;-144.06;66.89
11017;BME280;54687;50.800;6.772;2022-09-27T06:01:06;61122.25;;;-144.06;66.88
11017;BME280;54687;50.800;6.772;2022-09-27T06:03:33;61051.00;;;-144.06;66.78
11017;BME280;54687;50.800;6.772;2022-09-27T06:06:00;61120.16;;;-144.06;66.25
11017;BME280;54687;50.800;6.772;2022-09-27T06:08:33;61078.25;;;-144.06;65.84
11017;BME280;54687;50.800;6.772;2022-09-27T06:11:00;61080.34;;;-144.06;65.48
11017;BME280;54687;50.800;6.772;2022-09-27T06:13:28;61078.25;;;-144.06;64.96
11017;BME280;54687;50.800;6.772;2022-09-27T06:15:55;61067.75;;;-144.06;64.61
11017;BME280;54687;50.800;6.772;2022-09-27T06:18:22;61076.13;;;-144.06;64.27
11017;BME280;54687;50.800;6.772;2022-09-27T06:20:49;61065.66;;;-144.06;63.95
11017;BME280;54687;50.800;6.772;2022-09-27T06:23:18;61084.53;;;-144.06;64.20
11017;BME280;54687;50.800;6.772;2022-09-27T06:25:47;61051.00;;;-144.06;63.20
11017;BME280;54687;50.800;6.772;2022-09-27T06:28:15;61069.84;;;-144.06;63.11
11017;BME280;54687;50.800;6.772;2022-09-27T06:30:43;61097.09;;;-144.06;62.47
11017;BME280;54687;50.800;6.772;2022-09-27T06:33:12;61057.28;;;-144.06;62.61
11017;BME280;54687;50.800;6.772;2022-09-27T06:35:40;61061.47;;;-144.06;62.29
11017;BME280;54687;50.800;6.772;2022-09-27T06:38:10;61076.13;;;-144.06;61.81
11017;BME280;54687;50.800;6.772;2022-09-27T06:40:38;61042.59;;;-144.06;61.82
11017;BME280;54687;50.800;6.772;2022-09-27T06:43:08;61097.09;;;-144.06;62.17
11017;BME280;54687;50.800;6.772;2022-09-27T06:45:38;61034.22;;;-144.06;62.27
11017;BME280;54687;50.800;6.772;2022-09-27T06:48:06;61042.59;;;-144.06;61.88
11017;BME280;54687;50.800;6.772;2022-09-27T06:50:35;61078.25;;;-144.06;61.67
11017;BME280;54687;50.800;6.772;2022-09-27T06:53:02;61036.31;;;-144.06;62.05
11017;BME280;54687;50.800;6.772;2022-09-27T06:55:29;61048.88;;;-144.06;62.31
11017;BME280;54687;50.800;6.772;2022-09-27T06:57:56;61082.44;;;-144.06;62.15
11017;BME280;54687;50.800;6.772;2022-09-27T07:00:43;61071.94;;;-144.06;62.10
11017;BME280;54687;50.800;6.772;2022-09-27T07:03:15;61053.09;;;-144.06;61.90
11017;BME280;54687;50.800;6.772;2022-09-27T07:05:53;61019.53;;;-144.06;62.00
11017;BME280;54687;50.800;6.772;2022-09-27T07:08:21;61078.25;;;-144.06;61.60
11017;BME280;54687;50.800;6.772;2022-09-27T07:10:51;61027.94;;;-144.06;61.07
11017;BME280;54687;50.800;6.772;2022-09-27T07:13:20;61059.38;;;-144.06;60.30
11017;BME280;54687;50.800;6.772;2022-09-27T07:15:48;61046.78;;;-144.06;59.40
11017;BME280;54687;50.800;6.772;2022-09-27T07:18:15;61044.69;;;-144.06;59.53
11017;BME280;54687;50.800;6.772;2022-09-27T07:20:41;61055.19;;;-144.06;59.18
11017;BME280;54687;50.800;6.772;2022-09-27T07:23:09;61015.34;;;-144.06;58.55
11017;BME280;54687;50.800;6.772;2022-09-27T07:25:36;61032.13;;;-144.06;58.27
11017;BME280;54687;50.800;6.772;2022-09-27T07:28:04;61042.59;;;-144.06;58.22
11017;BME280;54687;50.800;6.772;2022-09-27T07:30:32;61017.44;;;-144.06;58.09
11017;BME280;54687;50.800;6.772;2022-09-27T07:33:02;61034.22;;;-144.06;57.58
11017;BME280;54687;50.800;6.772;2022-09-27T07:35:30;61013.25;;;-144.06;57.39
11017;BME280;54687;50.800;6.772;2022-09-27T07:37:59;60998.59;;;-144.06;56.93
11017;BME280;54687;50.800;6.772;2022-09-27T07:40:25;61042.59;;;-144.06;56.70
11017;BME280;54687;50.800;6.772;2022-09-27T07:42:56;60996.50;;;-144.06;55.92
11017;BME280;54687;50.800;6.772;2022-09-27T07:45:23;61025.84;;;-144.06;56.04
11017;BME280;54687;50.800;6.772;2022-09-27T07:47:50;61036.31;;;-144.06;55.45
11017;BME280;54687;50.800;6.772;2022-09-27T07:50:19;60983.91;;;-144.06;55.39
11017;BME280;54687;50.800;6.772;2022-09-27T07:52:48;61025.84;;;-144.06;55.25
11017;BME280;54687;50.800;6.772;2022-09-27T07:55:16;61021.63;;;-144.06;54.45
11017;BME280;54687;50.800;6.772;2022-09-27T07:57:43;61017.44;;;-144.06;53.98
11017;BME280;54687;50.800;6.772;2022-09-27T08:00:12;60983.91;;;-144.06;53.86
11017;BME280;54687;50.800;6.772;2022-09-27T08:02:39;61011.16;;;-144.06;54.10
11017;BME280;54687;50.800;6.772;2022-09-27T08:05:07;61025.84;;;-144.06;53.78
11017;BME280;54687;50.800;6.772;2022-09-27T08:07:36;61021.63;;;-144.06;53.76
11017;BME280;54687;50.800;6.772;2022-09-27T08:10:04;60990.19;;;-144.06;54.03
11017;BME280;54687;50.800;6.772;2022-09-27T08:12:31;61017.44;;;-144.06;53.88
11017;BME280;54687;50.800;6.772;2022-09-27T08:14:58;60979.72;;;-144.06;53.76
11017;BME280;54687;50.800;6.772;2022-09-27T08:17:26;61004.88;;;-144.06;53.66
11017;BME280;54687;50.800;6.772;2022-09-27T08:19:52;60986.00;;;-144.06;53.14
11017;BME280;54687;50.800;6.772;2022-09-27T08:22:19;60986.00;;;-144.06;52.88
11017;BME280;54687;50.800;6.772;2022-09-27T08:24:49;60994.38;;;-144.06;53.13
11017;BME280;54687;50.800;6.772;2022-09-27T08:27:16;60994.38;;;-144.06;53.82
11017;BME280;54687;50.800;6.772;2022-09-27T08:29:43;61000.69;;;-144.06;52.56
11017;BME280;54687;50.800;6.772;2022-09-27T08:32:10;60996.50;;;-144.06;52.86
11017;BME280;54687;50.800;6.772;2022-09-27T08:34:37;60998.59;;;-144.06;52.46
11017;BME280;54687;50.800;6.772;2022-09-27T08:37:05;61000.69;;;-144.06;52.26
11017;BME280;54687;50.800;6.772;2022-09-27T08:39:32;60992.28;;;-144.06;52.49
11017;BME280;54687;50.800;6.772;2022-09-27T08:42:05;60983.91;;;-144.06;51.52
11017;BME280;54687;50.800;6.772;2022-09-27T08:44:42;61009.06;;;-144.06;51.77
11017;BME280;54687;50.800;6.772;2022-09-27T08:47:16;60992.28;;;-144.06;52.12
11017;BME280;54687;50.800;6.772;2022-09-27T08:49:46;60996.50;;;-144.06;52.27
11017;BME280;54687;50.800;6.772;2022-09-27T08:52:18;60992.28;;;-144.06;51.78
11017;BME280;54687;50.800;6.772;2022-09-27T08:54:47;60960.84;;;-144.06;51.91
11017;BME280;54687;50.800;6.772;2022-09-27T08:57:16;60981.81;;;-144.06;51.14
11017;BME280;54687;50.800;6.772;2022-09-27T08:59:48;60975.53;;;-144.06;51.65
11017;BME280;54687;50.800;6.772;2022-09-27T09:02:21;61009.06;;;-144.06;51.50
11017;BME280;54687;50.800;6.772;2022-09-27T09:04:53;60979.72;;;-144.06;51.33
11017;BME280;54687;50.800;6.772;2022-09-27T09:07:46;61009.06;;;-144.06;51.06
11017;BME280;54687;50.800;6.772;2022-09-27T09:10:31;61002.78;;;-144.06;50.88
11017;BME280;54687;50.800;6.772;2022-09-27T09:13:27;60946.19;;;-144.06;49.99
11017;BME280;54687;50.800;6.772;2022-09-27T09:16:07;60977.63;;;-144.06;50.09
11017;BME280;54687;50.800;6.772;2022-09-27T09:18:51;60960.84;;;-144.06;50.14
11017;BME280;54687;50.800;6.772;2022-09-27T09:21:28;60952.47;;;-144.06;49.81
11017;BME280;54687;50.800;6.772;2022-09-27T09:24:24;60937.78;;;-144.06;49.13
11017;BME280;54687;50.800;6.772;2022-09-27T09:26:58;60923.13;;;-144.06;48.93
11017;BME280;54687;50.800;6.772;2022-09-27T09:29:38;60950.38;;;-144.06;48.07
11017;BME280;54687;50.800;6.772;2022-09-27T09:32:23;60962.94;;;-144.06;49.13
11017;BME280;54687;50.800;6.772;2022-09-27T09:34:58;60937.78;;;-144.06;48.61
11017;BME280;54687;50.800;6.772;2022-09-27T09:37:34;60956.66;;;-144.06;48.34
11017;BME280;54687;50.800;6.772;2022-09-27T09:40:06;60941.97;;;-144.06;49.13
11017;BME280;54687;50.800;6.772;2022-09-27T09:42:44;61000.69;;;-144.06;49.31
11017;BME280;54687;50.800;6.772;2022-09-27T09:45:19;60977.63;;;-144.06;48.80
11017;BME280;54687;50.800;6.772;2022-09-27T09:47:52;60962.94;;;-144.06;49.32
11017;BME280;54687;50.800;6.772;2022-09-27T09:50:25;60941.97;;;-144.06;50.22
11017;BME280;54687;50.800;6.772;2022-09-27T09:52:56;60979.72;;;-144.06;50.24
11017;BME280;54687;50.800;6.772;2022-09-27T09:55:27;60975.53;;;-144.06;49.79
11017;BME280;54687;50.800;6.772;2022-09-27T09:58:04;60967.13;;;-144.06;50.04
11017;BME280;54687;50.800;6.772;2022-09-27T10:00:39;60950.38;;;-144.06;49.34
11017;BME280;54687;50.800;6.772;2022-09-27T10:03:07;60967.13;;;-144.06;48.01
11017;BME280;54687;50.800;6.772;2022-09-27T10:05:34;60992.28;;;-144.06;48.38
11017;BME280;54687;50.800;6.772;2022-09-27T10:08:02;60931.50;;;-144.06;48.09
11017;BME280;54687;50.800;6.772;2022-09-27T10:10:30;60954.56;;;-144.06;48.31
11017;BME280;54687;50.800;6.772;2022-09-27T10:12:57;60958.75;;;-144.06;48.19
11017;BME280;54687;50.800;6.772;2022-09-27T10:15:27;60925.22;;;-144.06;47.25
11017;BME280;54687;50.800;6.772;2022-09-27T10:17:58;60937.78;;;-144.06;47.08
11017;BME280;54687;50.800;6.772;2022-09-27T10:20:30;60933.59;;;-144.06;47.06
11017;BME280;54687;50.800;6.772;2022-09-27T10:23:03;60983.91;;;-144.06;46.43
11017;BME280;54687;50.800;6.772;2022-09-27T10:25:45;60925.22;;;-144.06;46.57
11017;BME280;54687;50.800;6.772;2022-09-27T10:28:28;60900.06;;;-144.06;46.11
11017;BME280;54687;50.800;6.772;2022-09-27T10:30:59;60912.63;;;-144.06;45.54
11017;BME280;54687;50.800;6.772;2022-09-27T10:33:28;60933.59;;;-144.06;46.13
11017;BME280;54687;50.800;6.772;2022-09-27T10:35:57;60916.84;;;-144.06;46.04
11017;BME280;54687;50.800;6.772;2022-09-27T10:38:26;60900.06;;;-144.06;46.53
11017;BME280;54687;50.800;6.772;2022-09-27T10:40:55;60950.38;;;-144.06;46.01
11017;BME280;54687;50.800;6.772;2022-09-27T10:43:26;60881.19;;;-144.06;46.48
11017;BME280;54687;50.800;6.772;2022-09-27T10:46:02;60925.22;;;-144.06;46.41
11017;BME280;54687;50.800;6.772;2022-09-27T10:48:30;60935.69;;;-144.06;47.17
11017;BME280;54687;50.800;6.772;2022-09-27T10:50:58;60916.84;;;-144.06;46.89
11017;BME280;54687;50.800;6.772;2022-09-27T10:53:27;60904.25;;;-144.06;47.19
11017;BME280;54687;50.800;6.772;2022-09-27T10:55:56;60931.50;;;-144.06;46.44
11017;BME280;54687;50.800;6.772;2022-09-27T10:58:26;60916.84;;;-144.06;46.47
11017;BME280;54687;50.800;6.772;2022-09-27T11:00:57;60906.34;;;-144.06;45.96
11017;BME280;54687;50.800;6.772;2022-09-27T11:03:28;60935.69;;;-144.06;45.96
11017;BME280;54687;50.800;6.772;2022-09-27T11:05:57;60935.69;;;-144.06;46.18
11017;BME280;54687;50.800;6.772;2022-09-27T11:08:29;60933.59;;;-144.06;45.74
11017;BME280;54687;50.800;6.772;2022-09-27T11:11:02;60958.75;;;-144.06;45.76
11017;BME280;54687;50.800;6.772;2022-09-27T11:13:31;60910.53;;;-144.06;45.91
11017;BME280;54687;50.800;6.772;2022-09-27T11:16:14;60935.69;;;-144.06;45.94
11017;BME280;54687;50.800;6.772;2022-09-27T11:18:50;60908.44;;;-144.06;45.47
11017;BME280;54687;50.800;6.772;2022-09-27T11:21:28;60872.81;;;-144.06;44.99
11017;BME280;54687;50.800;6.772;2022-09-27T11:24:15;60916.84;;;-144.06;45.10
11017;BME280;54687;50.800;6.772;2022-09-27T11:26:53;60965.03;;;-144.06;45.26
11017;BME280;54687;50.800;6.772;2022-09-27T11:29:29;60912.63;;;-144.06;45.49
11017;BME280;54687;50.800;6.772;2022-09-27T11:32:18;60904.25;;;-144.06;44.72
11017;BME280;54687;50.800;6.772;2022-09-27T11:35:01;60906.34;;;-144.06;44.86
11017;BME280;54687;50.800;6.772;2022-09-27T11:37:39;60897.97;;;-144.06;44.33
11017;BME280;54687;50.800;6.772;2022-09-27T11:40:17;60908.44;;;-144.06;44.27
11017;BME280;54687;50.800;6.772;2022-09-27T11:43:08;60904.25;;;-144.06;44.28
11017;BME280;54687;50.800;6.772;2022-09-27T11:45:52;60916.84;;;-144.06;44.64
11017;BME280;54687;50.800;6.772;2022-09-27T11:48:27;60921.03;;;-144.06;45.23
11017;BME280;54687;50.800;6.772;2022-09-27T11:51:07;60931.50;;;-144.06;45.67
11017;BME280;54687;50.800;6.772;2022-09-27T11:53:55;60921.03;;;-144.06;45.95
11017;BME280;54687;50.800;6.772;2022-09-27T11:56:35;60975.53;;;-144.06;46.63
11017;BME280;54687;50.800;6.772;2022-09-27T11:59:33;60939.88;;;-144.06;46.95
11017;BME280;54687;50.800;6.772;2022-09-27T12:02:20;60958.75;;;-144.06;47.48
11017;BME280;54687;50.800;6.772;2022-09-27T12:05:00;60979.72;;;-144.06;47.04
11017;BME280;54687;50.800;6.772;2022-09-27T12:07:43;60975.53;;;-144.06;47.46
11017;BME280;54687;50.800;6.772;2022-09-27T12:10:17;60946.19;;;-144.06;47.28
11017;BME280;54687;50.800;6.772;2022-09-27T12:12:50;60941.97;;;-144.06;47.49
11017;BME280;54687;50.800;6.772;2022-09-27T12:15:21;60969.22;;;-144.06;48.17
11017;BME280;54687;50.800;6.772;2022-09-27T12:17:51;60988.09;;;-144.06;49.63
11017;BME280;54687;50.800;6.772;2022-09-27T12:20:22;60962.94;;;-144.06;51.11
11017;BME280;54687;50.800;6.772;2022-09-27T12:22:54;60979.72;;;-144.06;52.00
11017;BME280;54687;50.800;6.772;2022-09-27T12:25:26;60994.38;;;-144.06;52.74
11017;BME280;54687;50.800;6.772;2022-09-27T12:27:59;60983.91;;;-144.06;53.20
11017;BME280;54687;50.800;6.772;2022-09-27T12:30:30;60916.84;;;-144.06;52.19
11017;BME280;54687;50.800;6.772;2022-09-27T12:33:05;60954.56;;;-144.06;51.70
11017;BME280;54687;50.800;6.772;2022-09-27T12:35:39;60994.38;;;-144.06;51.55
11017;BME280;54687;50.800;6.772;2022-09-27T12:38:12;60948.28;;;-144.06;50.92
11017;BME280;54687;50.800;6.772;2022-09-27T12:40:44;61009.06;;;-144.06;50.47
11017;BME280;54687;50.800;6.772;2022-09-27T12:43:16;60941.97;;;-144.06;48.35
11017;BME280;54687;50.800;6.772;2022-09-27T12:45:57;60950.38;;;-144.06;48.03
11017;BME280;54687;50.800;6.772;2022-09-27T12:48:32;60925.22;;;-144.06;47.63
11017;BME280;54687;50.800;6.772;2022-09-27T12:51:06;60908.44;;;-144.06;46.91
11017;BME280;54687;50.800;6.772;2022-09-27T12:53:44;60895.88;;;-144.06;47.42
11017;BME280;54687;50.800;6.772;2022-09-27T12:56:31;60931.50;;;-144.06;47.49
11017;BME280;54687;50.800;6.772;2022-09-27T12:59:20;60962.94;;;-144.06;47.14
11017;BME280;54687;50.800;6.772;2022-09-27T13:02:06;60902.16;;;-144.06;47.53